Time;durP1;ratioP1;P1;durP2;ratioP2;P2;SDS_P1;SDS_P2;PMS_P1;PMS_P2;Temp;Humidity;BMP_temperature;BMP_pressure;BME280_temperature;BME280_humidity;BME280_pressure;Samples;Min_cycle;Max_cycle;Signal;HPM_P1;HPM_P2
2022/09/05 00:01:19;;;;;;;3.30;3.20;;;;;;;17.71;100.00;150488.41;5091900;28;20232;-61
2022/09/05 00:03:53;;;;;;;3.47;3.27;;;;;;;17.76;100.00;150502.41;5095538;28;20602;-60
2022/09/05 00:06:24;;;;;;;3.33;3.10;;;;;;;17.80;100.00;150511.28;5095399;28;20208;-61
2022/09/05 00:08:59;;;;;;;2.80;2.70;;;;;;;17.82;100.00;150515.13;5095548;28;20245;-62
2022/09/05 00:11:36;;;;;;;2.97;2.87;;;;;;;17.77;100.00;150503.69;5095291;28;20582;-60
2022/09/05 00:14:26;;;;;;;2.70;2.60;;;;;;;17.76;100.00;150502.41;5095261;28;20233;-61
2022/09/05 00:17:04;;;;;;;2.70;2.60;;;;;;;17.91;100.00;150539.22;5095466;28;20187;-61
2022/09/05 00:19:39;;;;;;;3.03;2.93;;;;;;;17.93;100.00;150543.06;5095029;28;20192;-61
2022/09/05 00:22:20;;;;;;;3.07;2.87;;;;;;;17.88;100.00;150531.63;5094909;28;20180;-61
2022/09/05 00:25:01;;;;;;;3.97;3.53;;;;;;;17.70;100.00;150485.84;5094671;28;20279;-61
2022/09/05 00:27:39;;;;;;;3.00;2.80;;;;;;;17.80;100.00;150512.56;5093530;28;20188;-61
2022/09/05 00:30:13;;;;;;;3.17;3.07;;;;;;;17.79;100.00;150510.00;5094668;28;20184;-61
2022/09/05 00:33:05;;;;;;;7.40;3.03;;;;;;;17.76;100.00;150502.41;5094797;28;20226;-60
2022/09/05 00:35:50;;;;;;;3.13;3.03;;;;;;;17.62;100.00;150466.81;5094606;28;20180;-61
2022/09/05 00:38:19;;;;;;;3.53;3.23;;;;;;;17.75;100.00;150498.56;5094842;28;20195;-61
2022/09/05 00:40:49;;;;;;;3.40;3.20;;;;;;;17.61;100.00;150464.25;5094451;28;20190;-61
2022/09/05 00:43:21;;;;;;;3.03;2.93;;;;;;;17.53;100.00;150443.88;5094715;28;20188;-61
2022/09/05 00:45:54;;;;;;;3.03;2.90;;;;;;;17.55;100.00;150447.69;5094038;28;20208;-61
2022/09/05 00:48:29;;;;;;;3.37;3.07;;;;;;;17.69;100.00;150483.34;5094279;28;20176;-60
2022/09/05 00:51:10;;;;;;;3.33;3.13;;;;;;;17.56;100.00;150450.25;5094452;28;20188;-61
2022/09/05 00:53:46;;;;;;;2.77;2.67;;;;;;;17.77;100.00;150503.69;5094204;28;20188;-61
2022/09/05 00:56:33;;;;;;;3.13;2.97;;;;;;;17.77;100.00;150504.97;5094592;28;20180;-61
2022/09/05 00:59:42;;;;;;;4.90;2.90;;;;;;;17.76;100.00;150502.41;5094098;28;20184;-62
2022/09/05 01:02:22;;;;;;;3.20;3.00;;;;;;;17.70;100.00;150487.13;5094030;28;20188;-61
2022/09/05 01:04:54;;;;;;;3.20;2.87;;;;;;;17.79;100.00;150508.72;5094254;28;20270;-61
2022/09/05 01:07:40;;;;;;;3.03;2.73;;;;;;;17.89;100.00;150534.19;5094138;28;20204;-61
2022/09/05 01:10:19;;;;;;;2.93;2.60;;;;;;;17.91;100.00;150539.22;5093773;28;20230;-61
2022/09/05 01:13:20;;;;;;;3.10;2.73;;;;;;;17.99;100.00;150559.56;5092373;28;20207;-60
2022/09/05 01:15:52;;;;;;;3.67;2.70;;;;;;;17.86;100.00;150526.56;5093676;28;20179;-61
2022/09/05 01:18:46;;;;;;;2.90;2.80;;;;;;;17.97;100.00;150554.50;5094012;28;20215;-60
2022/09/05 01:21:41;;;;;;;3.13;2.77;;;;;;;18.05;100.00;150574.84;5093636;28;20191;-62
2022/09/05 01:24:36;;;;;;;3.40;2.80;;;;;;;18.10;100.00;150586.28;5093924;28;20527;-61
2022/09/05 01:27:36;;;;;;;3.10;2.80;;;;;;;18.05;100.00;150573.56;5093518;28;20200;-61
2022/09/05 01:30:11;;;;;;;3.07;2.80;;;;;;;18.04;100.00;150572.28;5093505;28;20188;-61
2022/09/05 01:32:46;;;;;;;3.40;3.17;;;;;;;18.10;100.00;150586.28;5093614;28;20203;-61
2022/09/05 01:35:45;;;;;;;3.17;2.97;;;;;;;18.04;100.00;150572.28;5093573;28;20179;-60
2022/09/05 01:38:18;;;;;;;2.77;2.67;;;;;;;17.99;100.00;150558.34;5093418;28;20218;-61
2022/09/05 01:40:53;;;;;;;3.23;3.13;;;;;;;17.94;100.00;150546.91;5093436;28;20212;-61
2022/09/05 01:43:34;;;;;;;3.47;3.20;;;;;;;18.04;100.00;150571.00;5093232;28;20190;-61
2022/09/05 01:46:18;;;;;;;2.93;2.73;;;;;;;17.97;100.00;150554.50;5092998;28;20271;-61
2022/09/05 01:48:53;;;;;;;3.40;3.17;;;;;;;18.01;100.00;150563.41;5093105;28;20192;-60
2022/09/05 01:51:29;;;;;;;3.40;3.20;;;;;;;17.86;100.00;150525.28;5093344;28;20565;-62
2022/09/05 01:54:07;;;;;;;2.87;2.77;;;;;;;17.99;100.00;150558.34;5093094;28;20223;-61
2022/09/05 01:56:46;;;;;;;2.83;2.73;;;;;;;18.01;100.00;150564.69;5093016;28;20195;-61
2022/09/05 01:59:28;;;;;;;4.03;3.50;;;;;;;17.78;100.00;150506.19;5093320;28;20184;-61
2022/09/05 02:02:15;;;;;;;2.67;2.57;;;;;;;17.80;100.00;150511.28;5093213;28;20184;-62
2022/09/05 02:05:28;;;;;;;2.57;2.47;;;;;;;17.83;100.00;150517.63;5093181;28;20566;-60
2022/09/05 02:08:19;;;;;;;4.50;3.27;;;;;;;17.82;100.00;150515.13;5093043;28;20184;-62
2022/09/05 02:11:10;;;;;;;2.93;2.67;;;;;;;17.77;100.00;150504.97;5093026;28;20271;-62
2022/09/05 02:13:54;;;;;;;2.80;2.70;;;;;;;17.69;100.00;150483.34;5092623;28;20194;-61
2022/09/05 02:16:28;;;;;;;3.20;3.10;;;;;;;17.63;100.00;150469.34;5092863;28;20211;-60
2022/09/05 02:19:05;;;;;;;3.20;3.10;;;;;;;17.26;100.00;150375.28;5092796;28;20661;-61
2022/09/05 02:21:42;;;;;;;3.47;3.30;;;;;;;17.29;100.00;150382.88;5092473;28;20188;-61
2022/09/05 02:24:16;;;;;;;3.30;3.00;;;;;;;17.60;100.00;150460.47;5092121;28;20187;-60
2022/09/05 02:27:09;;;;;;;3.07;2.93;;;;;;;17.58;100.00;150455.34;5092488;28;20211;-61
2022/09/05 02:29:41;;;;;;;2.90;2.70;;;;;;;17.54;100.00;150446.41;5092394;28;20242;-61
2022/09/05 02:32:16;;;;;;;5.77;3.03;;;;;;;17.45;100.00;150422.25;5092385;28;20196;-61
2022/09/05 02:34:54;;;;;;;2.90;2.80;;;;;;;17.38;100.00;150404.50;5092629;28;20188;-61
2022/09/05 02:37:28;;;;;;;3.17;2.97;;;;;;;17.45;100.00;150423.53;5092130;28;20176;-60
2022/09/05 02:40:01;;;;;;;2.50;2.30;;;;;;;17.40;100.00;150410.81;5092402;28;20667;-60
2022/09/05 02:42:35;;;;;;;2.67;2.40;;;;;;;17.39;100.00;150408.31;5092418;28;20554;-61
2022/09/05 02:45:20;;;;;;;2.90;2.80;;;;;;;17.41;100.00;150412.09;5092404;28;20193;-61
2022/09/05 02:47:54;;;;;;;3.10;2.80;;;;;;;17.41;100.00;150413.38;5092079;28;20242;-60
2022/09/05 02:50:35;;;;;;;3.17;3.07;;;;;;;17.38;100.00;150405.75;5091997;28;20184;-61
2022/09/05 02:53:04;;;;;;;3.00;2.80;;;;;;;17.36;100.00;150400.66;5092489;28;20188;-61
2022/09/05 02:55:59;;;;;;;3.10;3.00;;;;;;;17.39;100.00;150408.31;5091952;28;20181;-61
2022/09/05 02:58:42;;;;;;;3.30;3.20;;;;;;;17.39;100.00;150408.31;5091923;28;20188;-61
2022/09/05 03:01:14;;;;;;;3.00;2.90;;;;;;;17.29;100.00;150382.88;5092287;28;20188;-61
2022/09/05 03:03:48;;;;;;;6.27;2.93;;;;;;;17.08;100.00;150330.81;5092213;28;20295;-61
2022/09/05 03:06:33;;;;;;;3.50;3.37;;;;;;;17.36;100.00;150400.66;5091760;28;20199;-61
2022/09/05 03:09:18;;;;;;;3.17;3.07;;;;;;;17.42;100.00;150414.66;5091988;28;20217;-61
2022/09/05 03:12:31;;;;;;;3.57;3.27;;;;;;;17.35;100.00;150398.16;5091979;28;20187;-61
2022/09/05 03:15:39;;;;;;;3.30;3.00;;;;;;;17.32;100.00;150390.50;5055579;28;20287;-61
2022/09/05 03:18:44;;;;;;;3.03;2.93;;;;;;;17.31;100.00;150388.00;5092221;28;20187;-61
2022/09/05 03:21:41;;;;;;;3.27;3.07;;;;;;;17.34;100.00;150396.88;5091575;28;20180;-60
2022/09/05 03:24:58;;;;;;;3.10;3.00;;;;;;;17.24;100.00;150370.16;5074557;28;20227;-61
2022/09/05 03:28:12;;;;;;;2.97;2.70;;;;;;;17.35;100.00;150398.16;5091156;28;20223;-60
2022/09/05 03:30:55;;;;;;;2.67;2.47;;;;;;;17.37;100.00;150403.22;5029382;28;20589;-61
2022/09/05 03:33:48;;;;;;;2.70;2.60;;;;;;;17.30;100.00;150385.44;5091320;28;20192;-61
2022/09/05 03:36:56;;;;;;;3.90;3.07;;;;;;;17.29;100.00;150384.16;5089838;28;20291;-61
2022/09/05 03:40:13;;;;;;;3.27;3.07;;;;;;;17.23;100.00;150367.63;5095916;28;20241;-60
2022/09/05 03:42:52;;;;;;;4.80;3.03;;;;;;;16.98;100.00;150304.09;5061702;28;20685;-61
2022/09/05 03:45:58;;;;;;;2.87;2.77;;;;;;;17.16;100.00;150351.13;5095546;28;20194;-61
2022/09/05 03:48:48;;;;;;;3.77;3.47;;;;;;;17.17;100.00;150353.69;5090047;28;20198;-60
2022/09/05 03:51:29;;;;;;;3.00;2.90;;;;;;;17.16;100.00;150349.84;5092375;28;20203;-60
2022/09/05 03:54:38;;;;;;;3.17;2.97;;;;;;;17.13;100.00;150342.25;5095643;28;20554;-60
2022/09/05 03:57:34;;;;;;;3.20;3.00;;;;;;;17.22;100.00;150365.13;5038688;28;20196;-61
2022/09/05 04:00:09;;;;;;;3.43;3.30;;;;;;;17.05;100.00;150321.91;5073321;28;20279;-61
2022/09/05 04:02:49;;;;;;;3.20;2.83;;;;;;;17.21;100.00;150362.56;5095210;28;20691;-61
2022/09/05 04:05:24;;;;;;;3.17;3.07;;;;;;;17.34;100.00;150395.59;5095132;28;20184;-61
2022/09/05 04:07:55;;;;;;;3.20;3.10;;;;;;;17.46;100.00;150424.81;5095280;28;20210;-62
2022/09/05 04:10:30;;;;;;;2.87;2.77;;;;;;;17.47;100.00;150428.66;5095104;28;20184;-60
2022/09/05 04:13:04;;;;;;;5.53;3.13;;;;;;;17.52;100.00;150440.09;5095326;28;20636;-61
2022/09/05 04:15:38;;;;;;;3.83;3.13;;;;;;;17.54;100.00;150446.41;5095143;28;20192;-62
2022/09/05 04:18:21;;;;;;;3.63;3.10;;;;;;;17.69;100.00;150484.63;5095366;28;20195;-61
2022/09/05 04:20:54;;;;;;;3.27;3.10;;;;;;;17.81;100.00;150513.84;5094759;28;20220;-62
2022/09/05 04:23:32;;;;;;;3.03;2.87;;;;;;;17.78;100.00;150507.47;5095000;28;20561;-61
2022/09/05 04:26:20;;;;;;;3.00;2.80;;;;;;;17.99;100.00;150558.34;5094969;28;20183;-62
2022/09/05 04:29:01;;;;;;;2.83;2.63;;;;;;;18.08;100.00;150582.47;5094642;28;20603;-61
2022/09/05 04:31:41;;;;;;;2.97;2.83;;;;;;;17.97;100.00;150553.22;5094870;28;20274;-60
2022/09/05 04:34:23;;;;;;;2.80;2.70;;;;;;;18.12;100.00;150591.41;5095238;28;20188;-61
2022/09/05 04:37:02;;;;;;;3.30;3.10;;;;;;;18.32;100.00;150640.97;5094542;28;20180;-61
2022/09/05 04:39:30;;;;;;;3.23;2.93;;;;;;;18.54;100.00;150698.22;5094851;28;20202;-61
2022/09/05 04:42:11;;;;;;;3.13;2.70;;;;;;;18.77;100.00;150754.19;5094463;28;20184;-61
2022/09/05 04:44:46;;;;;;;3.00;2.80;;;;;;;19.11;100.00;150840.69;5094421;28;20199;-61
2022/09/05 04:47:19;;;;;;;2.70;2.60;;;;;;;19.43;100.00;150920.94;5094226;28;20264;-61
2022/09/05 04:49:54;;;;;;;3.10;2.90;;;;;;;19.87;100.00;151031.63;5094409;28;20184;-62
2022/09/05 04:52:57;;;;;;;2.50;2.40;;;;;;;20.59;100.00;151212.47;5094332;28;20184;-61
2022/09/05 04:55:27;;;;;;;2.60;2.40;;;;;;;20.91;100.00;151295.31;5091278;28;20196;-61
2022/09/05 04:57:59;;;;;;;4.27;2.70;;;;;;;21.18;100.00;151362.84;5095172;28;20180;-62
2022/09/05 05:00:37;;;;;;;2.60;2.40;;;;;;;21.76;100.00;151508.16;5094764;28;20188;-61
2022/09/05 05:03:12;;;;;;;2.60;2.40;;;;;;;22.55;100.00;151707.09;5094503;28;20547;-62
2022/09/05 05:05:54;;;;;;;2.65;2.55;;;;;;;23.54;100.00;151957.25;5094091;28;20191;-62
2022/09/05 05:08:29;;;;;;;2.05;1.95;;;;;;;23.33;100.00;151904.88;5094037;28;20210;-62
2022/09/05 05:10:59;;;;;;;2.30;2.20;;;;;;;23.96;100.00;152063.19;5094307;28;20214;-62
2022/09/05 05:13:31;;;;;;;2.17;2.08;;;;;;;24.27;100.00;152142.41;5094270;28;20194;-61
2022/09/05 05:16:03;;;;;;;3.17;2.65;;;;;;;24.50;100.00;152201.13;5093928;28;20187;-62
2022/09/05 05:18:32;;;;;;;3.70;3.40;;;;;;;24.08;100.00;152095.09;5094159;28;20188;-61
2022/09/05 05:21:04;;;;;;;3.35;3.08;;;;;;;24.71;99.90;152252.19;5093825;28;20199;-62
2022/09/05 05:23:39;;;;;;;5.22;2.40;;;;;;;25.40;90.77;152427.25;5093726;28;20188;-61
2022/09/05 05:26:10;;;;;;;2.85;2.45;;;;;;;25.98;88.41;152574.28;5094044;28;20194;-62
2022/09/05 05:28:52;;;;;;;2.05;1.95;;;;;;;24.32;96.34;152153.84;5092813;28;20696;-61
2022/09/05 05:31:21;;;;;;;2.17;2.08;;;;;;;23.51;100.00;151949.56;5093849;28;20192;-62
2022/09/05 05:33:50;;;;;;;2.38;2.10;;;;;;;23.07;100.00;151838.53;5094043;28;20195;-61
2022/09/05 05:36:23;;;;;;;2.30;1.90;;;;;;;24.00;100.00;152074.69;5093197;28;20196;-62
2022/09/05 05:38:57;;;;;;;2.75;2.10;;;;;;;24.65;94.07;152236.88;5094021;28;20560;-62
2022/09/05 05:41:31;;;;;;;2.28;2.22;;;;;;;25.69;85.07;152501.44;5093708;28;20622;-61
2022/09/05 05:43:58;;;;;;;2.92;2.45;;;;;;;26.66;78.19;152745.63;5093241;28;20188;-61
2022/09/05 05:46:32;;;;;;;3.90;2.15;;;;;;;27.37;71.14;152924.78;5092947;28;20238;-61
2022/09/05 05:49:27;;;;;;;2.53;2.42;;;;;;;27.86;68.68;153050.22;5093699;28;20225;-62
2022/09/05 05:52:25;;;;;;;2.53;2.05;;;;;;;27.85;63.50;153046.38;5093426;28;20531;-62
2022/09/05 05:55:02;;;;;;;1.90;1.90;;;;;;;27.20;67.44;152883.81;5093123;28;20188;-63
2022/09/05 05:57:47;;;;;;;2.53;2.42;;;;;;;26.75;68.50;152769.94;5093338;28;20634;-63
2022/09/05 06:00:20;;;;;;;5.38;2.10;;;;;;;26.53;71.22;152713.66;5092066;28;20188;-63
2022/09/05 06:03:32;;;;;;;4.28;2.00;;;;;;;27.49;68.51;152956.81;5092814;28;20188;-63
2022/09/05 06:06:07;;;;;;;2.92;2.08;;;;;;;26.32;72.88;152659.97;5091703;28;20192;-62
2022/09/05 06:09:14;;;;;;;9.27;2.15;;;;;;;27.15;71.51;152871.06;5093033;28;20246;-62
2022/09/05 06:12:23;;;;;;;3.10;2.08;;;;;;;26.34;75.18;152665.09;5092964;28;20627;-62
2022/09/05 06:18:48;;;;;;;2.50;2.30;;;;;;;23.32;96.88;151902.31;5109674;27;20998;-62
2022/09/05 06:21:53;;;;;;;2.92;2.38;;;;;;;23.06;100.00;151835.97;5102691;28;20199;-62
2022/09/05 06:25:13;;;;;;;2.17;2.08;;;;;;;22.53;100.00;151702.00;5109320;28;20187;-61
2022/09/05 06:27:53;;;;;;;4.28;2.88;;;;;;;22.22;100.00;151625.50;5107954;28;20225;-62
2022/09/05 06:30:21;;;;;;;2.40;2.30;;;;;;;21.82;100.00;151523.44;5109324;28;20187;-61
2022/09/05 06:33:09;;;;;;;2.53;2.33;;;;;;;22.21;100.00;151622.94;5109485;28;20190;-61
2022/09/05 06:35:54;;;;;;;1.90;1.80;;;;;;;22.05;100.00;151582.13;5108825;28;20206;-63
2022/09/05 06:38:41;;;;;;;5.28;2.15;;;;;;;22.14;100.00;151605.09;5108999;28;20248;-62
2022/09/05 06:41:25;;;;;;;1.90;1.80;;;;;;;21.94;100.00;151552.81;5108881;28;20179;-62
2022/09/05 06:44:14;;;;;;;2.20;2.10;;;;;;;21.57;100.00;151460.97;5108690;28;20187;-62
2022/09/05 06:46:42;;;;;;;2.45;2.20;;;;;;;21.82;100.00;151523.44;5108949;28;20175;-62
2022/09/05 06:49:16;;;;;;;2.93;2.73;;;;;;;21.84;100.00;151528.53;5108846;28;20186;-62
2022/09/05 06:52:19;;;;;;;2.40;2.30;;;;;;;21.97;100.00;151561.75;5108267;28;20366;-62
2022/09/05 06:55:20;;;;;;;2.45;2.35;;;;;;;22.15;100.00;151606.38;5106959;28;20195;-61
2022/09/05 06:58:27;;;;;;;2.38;2.17;;;;;;;22.03;100.00;151577.00;5074333;28;20227;-61
2022/09/05 07:00:57;;;;;;;2.67;2.58;;;;;;;22.02;100.00;151573.22;5108773;28;20570;-62
2022/09/05 07:03:38;;;;;;;2.60;2.50;;;;;;;22.08;100.00;151589.78;5108290;28;20187;-61
2022/09/05 07:06:09;;;;;;;2.90;2.33;;;;;;;22.05;100.00;151582.13;5108297;28;20320;-62
2022/09/05 07:08:46;;;;;;;2.65;2.10;;;;;;;21.50;100.00;151441.88;5108276;28;20179;-62
2022/09/05 07:11:20;;;;;;;3.73;2.30;;;;;;;21.80;100.00;151518.34;5108557;28;20586;-61
2022/09/05 07:14:01;;;;;;;2.20;2.10;;;;;;;21.81;100.00;151520.91;5108278;28;20187;-62
2022/09/05 07:16:45;;;;;;;2.13;2.03;;;;;;;21.78;100.00;151513.22;5108263;28;20224;-63
2022/09/05 07:19:28;;;;;;;3.30;1.95;;;;;;;21.92;100.00;151549.00;5108500;28;20633;-61
2022/09/05 07:22:14;;;;;;;8.75;2.35;;;;;;;22.18;100.00;151615.28;5108351;28;20241;-63
2022/09/05 07:24:45;;;;;;;6.93;2.55;;;;;;;22.35;100.00;151656.09;5108315;28;20191;-61
2022/09/05 07:27:28;;;;;;;3.85;2.42;;;;;;;22.52;100.00;151699.44;5107130;28;20184;-62
2022/09/05 07:29:58;;;;;;;2.65;2.45;;;;;;;22.41;100.00;151671.34;5094687;28;20654;-63
2022/09/05 07:32:26;;;;;;;2.10;2.00;;;;;;;22.49;100.00;151693.03;5094527;28;20207;-65
2022/09/05 07:34:54;;;;;;;2.83;2.13;;;;;;;22.65;100.00;151733.88;5094300;28;20194;-62
2022/09/05 07:37:25;;;;;;;2.20;2.10;;;;;;;23.06;100.00;151835.97;5094212;28;20261;-62
2022/09/05 07:39:57;;;;;;;5.80;2.00;;;;;;;23.18;100.00;151867.84;5094575;28;20225;-62
2022/09/05 07:42:30;;;;;;;5.53;2.50;;;;;;;23.71;100.00;152000.66;5094391;28;20558;-62
2022/09/05 07:45:03;;;;;;;3.38;1.83;;;;;;;24.09;100.00;152097.66;5094371;28;20634;-62
2022/09/05 07:47:34;;;;;;;2.30;2.13;;;;;;;24.28;100.00;152143.63;5094382;28;20531;-60
2022/09/05 07:50:07;;;;;;;1.95;1.85;;;;;;;23.97;100.00;152065.75;5094121;28;20184;-61
2022/09/05 07:52:39;;;;;;;2.15;1.63;;;;;;;23.99;98.54;152072.13;5094248;28;20188;-60
2022/09/05 07:55:22;;;;;;;1.88;1.77;;;;;;;23.71;100.00;152000.66;5093846;28;20184;-61
2022/09/05 07:57:54;;;;;;;2.22;2.00;;;;;;;23.87;100.00;152041.47;5093771;28;20204;-61
2022/09/05 08:00:23;;;;;;;2.70;2.47;;;;;;;24.08;100.00;152093.81;5094110;28;20631;-62
2022/09/05 08:02:50;;;;;;;1.98;1.88;;;;;;;24.12;100.00;152104.03;5093994;28;20180;-61
2022/09/05 08:05:21;;;;;;;2.28;2.08;;;;;;;24.08;100.00;152095.09;5093619;28;20188;-61
2022/09/05 08:07:52;;;;;;;2.25;1.85;;;;;;;24.26;99.88;152139.84;5093617;28;20184;-61
2022/09/05 08:10:23;;;;;;;1.80;1.70;;;;;;;24.17;100.00;152116.84;5093822;28;20188;-62
2022/09/05 08:12:56;;;;;;;1.88;1.77;;;;;;;24.04;100.00;152084.88;5093880;28;20226;-61
2022/09/05 08:15:26;;;;;;;4.15;1.88;;;;;;;24.28;99.50;152143.63;5093734;28;20223;-62
2022/09/05 08:18:05;;;;;;;9.95;2.70;;;;;;;24.33;100.00;152156.41;5093219;28;20229;-61
2022/09/05 08:20:45;;;;;;;3.05;2.15;;;;;;;24.38;100.00;152170.47;5094048;28;20520;-61
2022/09/05 08:23:30;;;;;;;1.38;1.38;;;;;;;24.55;99.98;152213.91;5095534;28;20267;-62
2022/09/05 08:26:02;;;;;;;1.92;1.83;;;;;;;24.40;99.00;152174.31;5093464;28;20188;-60
2022/09/05 08:28:43;;;;;;;1.65;1.55;;;;;;;23.85;100.00;152035.13;5093054;28;20191;-61
2022/09/05 08:31:14;;;;;;;2.50;1.23;;;;;;;23.58;100.00;151967.47;5093008;28;20184;-61
2022/09/05 08:33:43;;;;;;;1.95;1.83;;;;;;;23.60;100.00;151972.53;5093096;28;20180;-62
2022/09/05 08:36:20;;;;;;;6.75;1.65;;;;;;;23.92;100.00;152054.25;5092188;28;20188;-61
2022/09/05 08:38:49;;;;;;;1.85;1.75;;;;;;;24.15;100.00;152111.72;5092903;28;20192;-62
2022/09/05 08:41:26;;;;;;;4.50;2.40;;;;;;;24.40;100.00;152175.56;5092499;28;20561;-61
2022/09/05 08:44:02;;;;;;;2.75;2.55;;;;;;;24.54;99.94;152211.31;5093140;28;20654;-62
2022/09/05 08:46:35;;;;;;;6.57;2.45;;;;;;;24.62;98.16;152230.47;5093111;28;20287;-61
2022/09/05 08:49:39;;;;;;;2.45;2.25;;;;;;;23.97;100.00;152067.03;5092992;28;20188;-60
2022/09/05 08:52:11;;;;;;;1.65;1.55;;;;;;;23.82;100.00;152028.69;5090589;28;20195;-60
2022/09/05 08:54:53;;;;;;;2.17;1.98;;;;;;;24.09;100.00;152096.38;5093106;28;20188;-61
2022/09/05 08:57:45;;;;;;;4.50;2.10;;;;;;;24.33;100.00;152156.41;5092826;28;20216;-62
2022/09/05 09:00:15;;;;;;;2.55;2.00;;;;;;;24.69;98.79;152248.38;5092560;28;20191;-61
2022/09/05 09:02:56;;;;;;;9.35;2.15;;;;;;;25.15;93.76;152363.38;5092436;28;20184;-61
2022/09/05 09:05:46;;;;;;;1.58;1.48;;;;;;;25.52;90.75;152457.94;5092136;28;20195;-61
2022/09/05 09:08:16;;;;;;;1.70;1.58;;;;;;;25.79;89.16;152527.00;5091319;28;20503;-61
2022/09/05 09:10:54;;;;;;;1.85;1.52;;;;;;;25.73;87.81;152511.66;5092237;28;20274;-60
2022/09/05 09:13:37;;;;;;;1.55;1.55;;;;;;;25.35;87.09;152414.47;5092171;28;20189;-61
2022/09/05 09:16:10;;;;;;;1.88;1.70;;;;;;;24.68;94.29;152245.81;5092328;28;20239;-61
2022/09/05 09:19:05;;;;;;;2.38;1.40;;;;;;;24.64;96.50;152234.31;5091671;28;20226;-61
2022/09/05 09:21:40;;;;;;;1.52;1.42;;;;;;;24.50;96.83;152199.84;5092170;28;20627;-60
2022/09/05 09:24:20;;;;;;;1.17;1.17;;;;;;;24.72;95.15;152256.03;5092614;28;20645;-61
2022/09/05 09:26:56;;;;;;;1.40;1.40;;;;;;;24.09;96.46;152096.38;5092094;28;20236;-61
2022/09/05 09:29:24;;;;;;;2.20;1.30;;;;;;;24.28;97.46;152144.91;5091992;28;20194;-61
2022/09/05 09:32:08;;;;;;;1.33;1.33;;;;;;;24.13;95.52;152107.88;5091957;28;20198;-60
2022/09/05 09:34:50;;;;;;;1.98;1.73;;;;;;;24.90;92.34;152302.09;5092188;28;20666;-61
2022/09/05 09:37:34;;;;;;;1.65;0.98;;;;;;;25.73;89.64;152510.38;5092135;28;20290;-61
2022/09/05 09:40:27;;;;;;;1.58;1.48;;;;;;;26.64;80.00;152741.84;5092135;28;20570;-62
2022/09/05 09:43:00;;;;;;;1.67;1.55;;;;;;;27.30;74.72;152908.13;5092011;28;20184;-62
2022/09/05 09:45:47;;;;;;;3.78;1.33;;;;;;;26.78;74.40;152777.59;5092089;28;20192;-62
2022/09/05 09:48:59;;;;;;;1.35;1.25;;;;;;;26.56;75.33;152721.38;5091704;28;20188;-62
2022/09/05 09:51:48;;;;;;;1.50;1.00;;;;;;;26.11;78.60;152606.22;5091455;28;20191;-62
2022/09/05 09:55:13;;;;;;;1.88;1.23;;;;;;;26.44;75.89;152690.66;5091669;28;20187;-62
2022/09/05 09:58:22;;;;;;;1.75;1.30;;;;;;;26.15;75.32;152616.44;5091291;28;20303;-60
2022/09/05 10:00:56;;;;;;;2.13;1.35;;;;;;;26.21;76.09;152633.16;5066176;28;20200;-60
2022/09/05 10:03:53;;;;;;;2.30;1.38;;;;;;;26.43;79.21;152688.13;5091551;28;20187;-62
2022/09/05 10:06:55;;;;;;;1.20;1.20;;;;;;;24.77;82.21;152268.81;5064352;28;20192;-62
2022/09/05 10:09:36;;;;;;;1.60;1.50;;;;;;;25.06;84.72;152341.66;5091667;28;20187;-63
2022/09/05 10:12:39;;;;;;;4.60;1.73;;;;;;;25.47;87.97;152446.41;5091388;28;20195;-62
2022/09/05 10:15:24;;;;;;;2.90;1.77;;;;;;;25.70;89.83;152504.00;5091409;28;20199;-62
2022/09/05 10:18:20;;;;;;;1.13;1.13;;;;;;;25.41;82.38;152429.84;5091284;28;20238;-61
2022/09/05 10:21:04;;;;;;;1.15;1.15;;;;;;;24.58;90.87;152220.25;5091359;28;20196;-62
2022/09/05 10:24:10;;;;;;;3.05;1.38;;;;;;;24.55;91.11;152212.59;5091264;28;20266;-62
2022/09/05 10:27:04;;;;;;;1.70;1.60;;;;;;;24.41;95.48;152178.13;5018876;28;20203;-61
2022/09/05 10:30:15;;;;;;;1.85;1.70;;;;;;;23.91;100.00;152051.69;5090213;28;20180;-61
2022/09/05 10:32:52;;;;;;;1.50;1.25;;;;;;;23.48;100.00;151941.91;5077508;28;20607;-60
2022/09/05 10:35:28;;;;;;;1.83;1.73;;;;;;;23.11;100.00;151850.00;5088544;28;20188;-60
2022/09/05 10:38:02;;;;;;;1.58;1.48;;;;;;;22.85;100.00;151783.66;5087788;28;20359;-61
2022/09/05 10:40:33;;;;;;;1.52;1.42;;;;;;;22.72;100.00;151750.50;5088250;28;20187;-61
2022/09/05 10:43:09;;;;;;;5.70;1.50;;;;;;;22.71;100.00;151747.94;5090620;28;20192;-61
2022/09/05 10:45:47;;;;;;;1.42;1.33;;;;;;;22.93;100.00;151804.06;5089617;28;20278;-61
2022/09/05 10:48:23;;;;;;;2.53;2.40;;;;;;;22.86;100.00;151784.94;5090277;28;20200;-62
2022/09/05 10:50:58;;;;;;;2.05;1.95;;;;;;;22.68;100.00;151740.25;5091202;28;20230;-62
2022/09/05 10:53:33;;;;;;;1.75;1.65;;;;;;;22.51;100.00;151696.88;5091133;28;20183;-61
2022/09/05 10:56:06;;;;;;;4.25;1.55;;;;;;;22.52;100.00;151699.44;5091404;28;20192;-61
2022/09/05 10:58:58;;;;;;;1.33;1.25;;;;;;;22.50;100.00;151694.31;5091541;28;20265;-65
2022/09/05 11:01:36;;;;;;;1.42;1.33;;;;;;;22.20;100.00;151619.09;5091499;28;20308;-64
2022/09/05 11:04:12;;;;;;;1.70;1.60;;;;;;;22.27;100.00;151636.97;5093894;28;20332;-63
2022/09/05 11:06:53;;;;;;;3.13;1.60;;;;;;;22.50;100.00;151694.31;5094870;28;20238;-63
2022/09/05 11:09:45;;;;;;;2.28;1.52;;;;;;;22.58;100.00;151714.72;5094906;28;20176;-63
2022/09/05 11:12:31;;;;;;;1.73;1.55;;;;;;;22.70;100.00;151745.41;5095188;28;20190;-64
2022/09/05 11:15:01;;;;;;;1.42;1.35;;;;;;;22.56;100.00;151710.94;5094994;28;20230;-63
2022/09/05 11:17:35;;;;;;;1.23;1.00;;;;;;;22.52;100.00;151699.44;5094620;28;20685;-64
2022/09/05 11:20:25;;;;;;;1.65;1.48;;;;;;;22.77;100.00;151763.25;5094707;28;20175;-63
2022/09/05 11:23:01;;;;;;;1.38;1.20;;;;;;;22.85;100.00;151782.38;5094673;28;20180;-64
2022/09/05 11:25:31;;;;;;;1.48;1.40;;;;;;;22.99;100.00;151819.41;5094388;28;20632;-64
2022/09/05 11:28:10;;;;;;;1.17;1.17;;;;;;;22.89;100.00;151792.59;5094540;28;20184;-63
2022/09/05 11:30:42;;;;;;;1.67;1.58;;;;;;;22.77;100.00;151763.25;5094810;28;20632;-64
2022/09/05 11:33:32;;;;;;;1.50;1.40;;;;;;;22.82;100.00;151776.03;5094620;28;20184;-63
2022/09/05 11:36:02;;;;;;;1.33;1.30;;;;;;;22.57;100.00;151713.50;5091496;28;20622;-63
2022/09/05 11:38:58;;;;;;;3.83;1.45;;;;;;;22.52;100.00;151699.44;5094288;28;20295;-63
2022/09/05 11:41:55;;;;;;;1.92;1.50;;;;;;;22.56;100.00;151709.66;5094281;28;20223;-64
2022/09/05 11:44:32;;;;;;;1.17;1.08;;;;;;;22.33;100.00;151653.53;5094020;28;20267;-64
2022/09/05 11:47:22;;;;;;;1.35;1.25;;;;;;;22.23;100.00;151626.78;5093484;28;20187;-64
2022/09/05 11:50:20;;;;;;;3.95;1.33;;;;;;;22.05;100.00;151582.13;5094082;28;20188;-64
2022/09/05 11:53:19;;;;;;;3.20;1.40;;;;;;;22.09;100.00;151592.34;5094265;28;20301;-63
2022/09/05 11:56:18;;;;;;;1.23;1.23;;;;;;;22.04;100.00;151579.56;5093977;28;20176;-63
2022/09/05 11:59:06;;;;;;;1.23;1.10;;;;;;;22.08;100.00;151589.78;5093780;28;20579;-64
2022/09/05 12:01:43;;;;;;;1.10;1.10;;;;;;;21.99;100.00;151565.53;5094040;28;20180;-63
2022/09/05 12:04:37;;;;;;;1.80;1.07;;;;;;;21.76;100.00;151508.16;5093851;28;20539;-64
2022/09/05 12:07:37;;;;;;;1.33;1.33;;;;;;;22.03;100.00;151577.00;5093865;28;20185;-63
2022/09/05 12:10:26;;;;;;;1.63;1.52;;;;;;;21.98;100.00;151564.25;5093934;28;20188;-65
2022/09/05 12:13:09;;;;;;;8.55;1.90;;;;;;;22.15;100.00;151607.59;5093745;28;20262;-63
2022/09/05 12:15:43;;;;;;;1.45;1.35;;;;;;;22.24;100.00;151630.56;5092710;28;20237;-64
2022/09/05 12:18:19;;;;;;;2.20;1.90;;;;;;;22.04;100.00;151579.56;5093967;28;20208;-64
2022/09/05 12:20:55;;;;;;;2.28;1.60;;;;;;;22.12;100.00;151599.97;5093887;28;20184;-64
2022/09/05 12:23:31;;;;;;;8.85;1.85;;;;;;;22.10;100.00;151593.63;5093420;28;20184;-64
2022/09/05 12:26:06;;;;;;;1.58;1.48;;;;;;;22.06;100.00;151584.69;5093353;28;20275;-63
2022/09/05 12:28:39;;;;;;;3.17;1.60;;;;;;;22.07;100.00;151587.22;5093438;28;20188;-62
2022/09/05 12:31:16;;;;;;;1.73;1.40;;;;;;;21.85;100.00;151532.34;5093204;28;20237;-63